Time;durP1;ratioP1;P1;durP2;ratioP2;P2;SDS_P1;SDS_P2;PMS_P1;PMS_P2;Temp;Humidity;BMP_temperature;BMP_pressure;BME280_temperature;BME280_humidity;BME280_pressure;Samples;Min_cycle;Max_cycle;Signal;HPM_P1;HPM_P2
2022/11/16 00:00:22;;;;;;;;;;;;;;;8.08;75.07;99808.88;5066334;28;19991;-29
2022/11/16 00:02:50;;;;;;;;;;;;;;;8.06;74.95;99803.63;5063534;28;19923;-29
2022/11/16 00:05:17;;;;;;;;;;;;;;;8.07;75.14;99791.38;5073291;28;19917;-29
2022/11/16 00:07:44;;;;;;;;;;;;;;;8.06;75.08;99785.25;5059015;28;19989;-29
2022/11/16 00:10:10;;;;;;;;;;;;;;;8.05;75.01;99780.88;5038316;28;20616;-28
2022/11/16 00:12:35;;;;;;;;;;;;;;;8.04;75.08;99775.66;5070764;28;19924;-29
2022/11/16 00:15:00;;;;;;;;;;;;;;;8.02;75.22;99783.56;5067018;28;20870;-29
2022/11/16 00:17:27;;;;;;;;;;;;;;;8.00;75.20;99782.69;5069317;28;20479;-29
2022/11/16 00:19:52;;;;;;;;;;;;;;;7.97;75.15;99782.72;5046468;28;20296;-29
2022/11/16 00:22:20;;;;;;;;;;;;;;;7.97;75.17;99785.34;5070335;28;21239;-29
2022/11/16 00:24:47;;;;;;;;;;;;;;;7.96;75.19;99783.63;5058518;28;20413;-29
2022/11/16 00:27:12;;;;;;;;;;;;;;;7.95;75.27;99788.00;5056396;28;20377;-29
2022/11/16 00:29:39;;;;;;;;;;;;;;;7.93;75.29;99789.78;5054616;28;19923;-28
2022/11/16 00:32:04;;;;;;;;;;;;;;;7.94;75.28;99791.50;5047947;28;20443;-29
2022/11/16 00:34:29;;;;;;;;;;;;;;;7.93;75.26;99784.53;5071649;28;19921;-29
2022/11/16 00:36:55;;;;;;;;;;;;;;;7.93;75.21;99788.91;5072853;28;20379;-28
2022/11/16 00:39:20;;;;;;;;;;;;;;;7.93;74.96;99784.53;5069292;28;19917;-29
2022/11/16 00:41:46;;;;;;;;;;;;;;;7.91;75.22;99786.28;5065731;28;19920;-28
2022/11/16 00:44:11;;;;;;;;;;;;;;;7.90;75.26;99795.06;5072925;28;19920;-29
2022/11/16 00:46:37;;;;;;;;;;;;;;;7.89;75.16;99784.56;5057825;28;20011;-29
2022/11/16 00:49:02;;;;;;;;;;;;;;;7.88;75.61;99778.47;5075662;28;20297;-29
2022/11/16 00:51:27;;;;;;;;;;;;;;;7.87;75.31;99773.25;5070585;28;19917;-29
2022/11/16 00:53:53;;;;;;;;;;;;;;;7.86;75.26;99779.34;5078235;28;19920;-29
2022/11/16 00:56:18;;;;;;;;;;;;;;;7.85;75.36;99775.00;5078804;28;19931;-29
2022/11/16 00:58:43;;;;;;;;;;;;;;;7.83;75.30;99769.75;5077842;28;19924;-29
2022/11/16 01:01:11;;;;;;;;;;;;;;;7.82;75.28;99771.53;5057850;28;20339;-29
2022/11/16 01:03:36;;;;;;;;;;;;;;;7.81;75.37;99769.78;5076675;28;19939;-29
2022/11/16 01:06:03;;;;;;;;;;;;;;;7.79;75.37;99773.31;5063769;28;20373;-29
2022/11/16 01:08:29;;;;;;;;;;;;;;;7.79;75.47;99773.31;5049790;28;19916;-29
2022/11/16 01:10:54;;;;;;;;;;;;;;;7.78;75.30;99780.34;5075659;28;20011;-29
2022/11/16 01:13:19;;;;;;;;;;;;;;;7.77;75.42;99773.34;5069784;28;19947;-28
2022/11/16 01:15:47;;;;;;;;;;;;;;;7.76;75.36;99761.09;5071139;28;19943;-29
2022/11/16 01:18:13;;;;;;;;;;;;;;;7.75;75.44;99756.75;5046056;28;20058;-29
2022/11/16 01:20:42;;;;;;;;;;;;;;;7.74;75.50;99752.38;5080153;28;19978;-29
2022/11/16 01:23:08;;;;;;;;;;;;;;;7.74;75.50;99741.03;5063583;28;19917;-28
2022/11/16 01:25:33;;;;;;;;;;;;;;;7.73;75.32;99740.13;5075564;28;19927;-29
2022/11/16 01:27:58;;;;;;;;;;;;;;;7.71;75.29;99734.06;5073254;28;20030;-29
2022/11/16 01:30:24;;;;;;;;;;;;;;;7.72;75.36;99730.53;5071731;28;20341;-29
2022/11/16 01:32:49;;;;;;;;;;;;;;;7.70;75.46;99725.31;5074016;28;19925;-28
2022/11/16 01:35:15;;;;;;;;;;;;;;;7.70;75.40;99724.41;5066740;28;20270;-29
2022/11/16 01:37:40;;;;;;;;;;;;;;;7.68;75.45;99721.81;5061734;28;20259;-29
2022/11/16 01:40:06;;;;;;;;;;;;;;;7.68;75.35;99710.47;5072412;28;20448;-28
2022/11/16 01:42:32;;;;;;;;;;;;;;;7.68;75.46;99708.69;5072547;28;19923;-29
2022/11/16 01:45:00;;;;;;;;;;;;;;;7.67;75.58;99708.75;5055043;28;19920;-29
2022/11/16 01:47:26;;;;;;;;;;;;;;;7.65;75.54;99695.63;5074951;28;20019;-29
2022/11/16 01:49:53;;;;;;;;;;;;;;;7.66;75.60;99699.09;5064346;28;19964;-29
2022/11/16 01:52:19;;;;;;;;;;;;;;;7.65;75.60;99700.00;5042796;28;19925;-29
2022/11/16 01:54:46;;;;;;;;;;;;;;;7.63;75.53;99689.53;5056020;28;20353;-29
2022/11/16 01:57:15;;;;;;;;;;;;;;;7.64;75.52;99693.03;5074193;28;19920;-29
2022/11/16 01:59:40;;;;;;;;;;;;;;;7.63;75.40;99691.25;5055888;28;19920;-29
2022/11/16 02:02:05;;;;;;;;;;;;;;;7.62;75.29;99677.28;5054994;28;20272;-30
2022/11/16 02:04:31;;;;;;;;;;;;;;;7.61;75.26;99682.56;5072151;28;19923;-29
2022/11/16 02:06:56;;;;;;;;;;;;;;;7.60;75.49;99686.09;5050628;28;19916;-29
2022/11/16 02:12:24;;;;;;;;;;;;;;;7.58;75.24;99693.97;5051212;28;19924;-30
2022/11/16 02:15:03;;;;;;;;;;;;;;;7.56;75.50;99699.22;5065174;28;19916;-30
2022/11/16 02:17:48;;;;;;;;;;;;;;;7.55;75.16;99705.38;5066666;28;20517;-29
2022/11/16 02:20:14;;;;;;;;;;;;;;;7.54;75.33;99702.78;4978112;28;1927506;-29
2022/11/16 02:22:42;;;;;;;;;;;;;;;7.54;75.23;99708.88;5065659;28;19959;-29
2022/11/16 02:25:22;;;;;;;;;;;;;;;7.53;75.25;99717.63;5072904;28;19924;-29
2022/11/16 02:27:56;;;;;;;;;;;;;;;7.52;75.17;99713.28;5052613;28;19916;-29
2022/11/16 02:30:22;;;;;;;;;;;;;;;7.51;75.21;99711.56;5068050;28;19947;-30
2022/11/16 02:32:47;;;;;;;;;;;;;;;7.50;75.13;99712.41;5057735;28;19916;-29
2022/11/16 02:35:14;;;;;;;;;;;;;;;7.49;75.39;99699.31;5070917;28;19920;-29
2022/11/16 02:37:48;;;;;;;;;;;;;;;7.47;75.03;99701.94;5054451;28;19924;-29
2022/11/16 02:40:15;;;;;;;;;;;;;;;7.48;75.20;99698.47;5054289;28;19920;-29
2022/11/16 02:42:43;;;;;;;;;;;;;;;7.46;75.13;99689.72;5053863;28;19917;-29
2022/11/16 02:45:08;;;;;;;;;;;;;;;7.45;75.28;99698.50;5054236;28;19938;-29
2022/11/16 02:47:34;;;;;;;;;;;;;;;7.45;75.11;99695.88;5073391;28;20385;-29
2022/11/16 02:50:07;;;;;;;;;;;;;;;7.43;75.30;99692.38;5051886;28;19916;-29
2022/11/16 02:52:32;;;;;;;;;;;;;;;7.40;75.26;99690.66;5072275;28;20370;-29
2022/11/16 02:54:58;;;;;;;;;;;;;;;7.40;75.19;99684.56;5036213;28;19952;-29
2022/11/16 02:57:26;;;;;;;;;;;;;;;7.39;75.33;99688.94;5067453;28;19965;-29
2022/11/16 02:59:52;;;;;;;;;;;;;;;7.37;75.02;99689.84;5054422;28;19916;-29
2022/11/16 03:02:26;;;;;;;;;;;;;;;7.37;75.19;99692.47;5068818;28;19922;-29
2022/11/16 03:05:12;;;;;;;;;;;;;;;7.35;75.20;99687.25;5069482;28;20027;-29
2022/11/16 03:07:39;;;;;;;;;;;;;;;7.35;75.33;99696.84;5068494;28;20007;-29
2022/11/16 03:10:05;;;;;;;;;;;;;;;7.32;75.12;99690.78;5072205;28;20103;-29
2022/11/16 03:12:31;;;;;;;;;;;;;;;7.31;74.95;99675.91;5073995;28;19951;-29
2022/11/16 03:14:57;;;;;;;;;;;;;;;7.30;75.02;99668.03;5036961;28;19924;-29
2022/11/16 03:17:26;;;;;;;;;;;;;;;7.29;75.24;99680.31;5055386;28;19912;-30
2022/11/16 03:20:05;;;;;;;;;;;;;;;7.29;75.15;99688.19;5064140;28;19944;-29
2022/11/16 03:22:34;;;;;;;;;;;;;;;7.27;75.31;99684.69;5047196;28;19920;-29
2022/11/16 03:24:59;;;;;;;;;;;;;;;7.25;74.96;99681.25;5067267;28;19931;-30
2022/11/16 03:27:27;;;;;;;;;;;;;;;7.26;75.02;99688.22;5064347;28;20018;-29
2022/11/16 03:29:59;;;;;;;;;;;;;;;7.24;74.90;99682.09;5066649;28;19916;-29
2022/11/16 03:32:28;;;;;;;;;;;;;;;7.24;74.91;99683.88;5036479;28;19928;-29
2022/11/16 03:34:55;;;;;;;;;;;;;;;7.22;74.83;99685.63;5045407;28;20389;-30
2022/11/16 03:37:21;;;;;;;;;;;;;;;7.23;74.76;99692.63;5048925;28;19924;-29
2022/11/16 03:39:46;;;;;;;;;;;;;;;7.21;74.73;99692.66;5044217;28;19969;-32
2022/11/16 03:42:12;;;;;;;;;;;;;;;7.21;75.19;99699.63;5051546;28;20003;-29
2022/11/16 03:44:38;;;;;;;;;;;;;;;7.19;74.78;99697.03;5055993;28;19913;-29
2022/11/16 03:47:03;;;;;;;;;;;;;;;7.17;74.94;99706.69;5050453;28;19923;-29
2022/11/16 03:49:29;;;;;;;;;;;;;;;7.16;74.89;99707.53;5052462;28;20419;-30
2022/11/16 03:51:54;;;;;;;;;;;;;;;7.14;75.00;99709.34;5072923;28;20508;-29
2022/11/16 03:54:19;;;;;;;;;;;;;;;7.12;75.31;99711.97;5073123;28;20372;-29
2022/11/16 03:56:44;;;;;;;;;;;;;;;7.12;75.03;99716.34;5069936;28;20385;-29
2022/11/16 03:59:10;;;;;;;;;;;;;;;7.10;74.77;99718.13;5071378;28;19943;-29
2022/11/16 04:01:35;;;;;;;;;;;;;;;7.09;74.72;99711.13;5070191;28;19950;-30
2022/11/16 04:04:00;;;;;;;;;;;;;;;7.08;75.14;99710.25;5076169;28;19917;-29
2022/11/16 04:25:39;;;;;;;;;;;;;;;6.93;74.77;99683.31;5058755;28;20701;-29
2022/11/16 04:28:15;;;;;;;;;;;;;;;6.92;74.93;99676.34;5071449;28;19952;-29
2022/11/16 04:38:56;;;;;;;;;;;;;;;6.87;74.57;99687.75;5067352;28;19978;-29
2022/11/16 04:44:05;;;;;;;;;;;;;;;6.86;74.74;99699.09;5059727;28;19923;-30
2022/11/16 04:47:31;;;;;;;;;;;;;;;6.84;74.59;99698.25;5076089;28;19916;-29
2022/11/16 04:49:25;;;;;;;;;;;;;;;6.83;74.86;99700.00;5048211;28;20014;-29
2022/11/16 04:51:52;;;;;;;;;;;;;;;6.82;75.10;99700.00;5070838;28;19916;-29
2022/11/16 04:54:17;;;;;;;;;;;;;;;6.80;74.83;99692.16;5076724;28;19919;-29
2022/11/16 04:56:43;;;;;;;;;;;;;;;6.79;74.67;99696.56;5072941;28;20233;-29
2022/11/16 04:59:08;;;;;;;;;;;;;;;6.78;74.80;99689.59;5075643;28;19963;-29
2022/11/16 05:04:18;;;;;;;;;;;;;;;6.77;75.25;99690.44;5076653;28;19962;-29
2022/11/16 05:06:43;;;;;;;;;;;;;;;6.74;74.90;99674.75;5075792;28;19924;-29
2022/11/16 05:09:08;;;;;;;;;;;;;;;6.74;75.10;99679.13;5075167;28;19919;-29
2022/11/16 05:11:33;;;;;;;;;;;;;;;6.73;74.92;99677.41;5070437;28;19975;-29
2022/11/16 05:14:01;;;;;;;;;;;;;;;6.72;74.98;99676.53;5076507;28;20274;-29
2022/11/16 05:16:26;;;;;;;;;;;;;;;6.71;75.09;99677.41;5042056;28;19967;-29
2022/11/16 05:21:35;;;;;;;;;;;;;;;6.70;74.98;99688.75;5077328;28;19951;-29
2022/11/16 05:26:44;;;;;;;;;;;;;;;6.67;75.20;99689.66;5070306;28;20335;-29
2022/11/16 05:29:09;;;;;;;;;;;;;;;6.66;75.32;99692.28;5072398;28;19916;-29
2022/11/16 05:31:35;;;;;;;;;;;;;;;6.65;75.23;99690.56;5074356;28;20381;-29
2022/11/16 05:34:00;;;;;;;;;;;;;;;6.64;75.03;99694.91;5074109;28;20391;-29
2022/11/16 05:36:25;;;;;;;;;;;;;;;6.63;75.17;99708.03;5051804;28;19927;-29
2022/11/16 05:38:51;;;;;;;;;;;;;;;6.63;75.20;99713.28;5072197;28;19969;-28
2022/11/16 05:41:16;;;;;;;;;;;;;;;6.63;75.31;99708.03;5056170;28;19917;-29
2022/11/16 05:43:41;;;;;;;;;;;;;;;6.62;75.07;99708.94;5072768;28;19912;-29
2022/11/16 05:46:07;;;;;;;;;;;;;;;6.61;74.75;99710.69;5055931;28;20384;-29
2022/11/16 05:48:32;;;;;;;;;;;;;;;6.61;74.99;99720.28;5069246;28;19916;-29
2022/11/16 05:50:58;;;;;;;;;;;;;;;6.58;74.87;99710.72;5071103;28;20054;-29
2022/11/16 05:53:23;;;;;;;;;;;;;;;6.59;74.96;99701.09;5073335;28;19922;-29
2022/11/16 05:55:48;;;;;;;;;;;;;;;6.57;75.15;99692.38;5075379;28;19948;-29
2022/11/16 05:58:13;;;;;;;;;;;;;;;6.56;74.88;99691.50;5055440;28;20407;-29
2022/11/16 06:00:38;;;;;;;;;;;;;;;6.56;75.57;99690.66;5055618;28;19916;-29
2022/11/16 06:03:08;;;;;;;;;;;;;;;6.55;75.21;99692.41;5074308;28;20258;-29
2022/11/16 06:05:34;;;;;;;;;;;;;;;6.54;75.17;99686.28;5053472;28;19913;-29
2022/11/16 06:07:59;;;;;;;;;;;;;;;6.53;74.96;99681.03;5064236;28;19916;-29
2022/11/16 06:10:24;;;;;;;;;;;;;;;6.52;75.49;99682.81;5071626;28;19916;-29
2022/11/16 06:12:49;;;;;;;;;;;;;;;6.51;75.32;99678.44;5074961;28;19916;-29
2022/11/16 06:15:14;;;;;;;;;;;;;;;6.50;75.25;99676.72;5074927;28;19916;-29
2022/11/16 06:17:40;;;;;;;;;;;;;;;6.50;75.28;99683.72;5072938;28;19916;-29
2022/11/16 06:20:07;;;;;;;;;;;;;;;6.49;75.77;99685.47;5073082;28;19917;-29
2022/11/16 06:22:32;;;;;;;;;;;;;;;6.49;75.53;99687.19;5066882;28;19913;-29
2022/11/16 06:24:58;;;;;;;;;;;;;;;6.48;75.72;99699.44;5054800;28;19958;-29
2022/11/16 06:27:23;;;;;;;;;;;;;;;6.46;75.38;99685.47;5059963;28;20015;-29
2022/11/16 06:29:48;;;;;;;;;;;;;;;6.47;75.66;99697.69;5054931;28;19927;-29
2022/11/16 06:32:14;;;;;;;;;;;;;;;6.47;75.58;99692.44;5073135;28;19923;-29
2022/11/16 06:34:39;;;;;;;;;;;;;;;6.47;75.57;99689.81;5072165;28;19924;-29
2022/11/16 06:37:06;;;;;;;;;;;;;;;6.47;75.77;99692.44;5073483;28;19974;-29
2022/11/16 06:39:33;;;;;;;;;;;;;;;6.45;75.96;99693.34;5075082;28;19919;-29
2022/11/16 06:41:58;;;;;;;;;;;;;;;6.44;75.58;99692.50;5074801;28;19971;-29
2022/11/16 06:44:24;;;;;;;;;;;;;;;6.46;75.60;99697.69;5072506;28;19998;-29
2022/11/16 06:46:49;;;;;;;;;;;;;;;6.46;75.68;99695.97;5070818;28;19999;-29
2022/11/16 06:49:14;;;;;;;;;;;;;;;6.45;75.47;99695.97;5064506;28;20292;-29
2022/11/16 06:51:39;;;;;;;;;;;;;;;6.45;75.66;99690.72;5074906;28;20398;-29
2022/11/16 06:54:05;;;;;;;;;;;;;;;6.44;75.50;99692.50;5073550;28;20388;-29
2022/11/16 06:56:32;;;;;;;;;;;;;;;6.44;75.80;99700.34;5072419;28;20340;-29
2022/11/16 06:58:57;;;;;;;;;;;;;;;6.44;75.58;99691.63;5055114;28;19919;-29
2022/11/16 07:01:22;;;;;;;;;;;;;;;6.43;75.74;99680.25;5073702;28;19917;-29
2022/11/16 07:03:47;;;;;;;;;;;;;;;6.44;75.83;99687.25;5073059;28;20403;-29
2022/11/16 07:06:13;;;;;;;;;;;;;;;6.43;75.73;99690.72;5073060;28;20368;-29
2022/11/16 07:08:38;;;;;;;;;;;;;;;6.42;75.89;99689.00;5073035;28;19938;-29
2022/11/16 07:11:04;;;;;;;;;;;;;;;6.43;75.88;99701.22;5072303;28;20284;-29
2022/11/16 07:13:30;;;;;;;;;;;;;;;6.42;75.78;99689.00;5072757;28;20019;-29
2022/11/16 07:15:59;;;;;;;;;;;;;;;6.43;76.26;99692.50;5075433;28;19962;-29
2022/11/16 07:18:25;;;;;;;;;;;;;;;6.42;76.08;99689.00;5076464;28;20396;-29
2022/11/16 07:20:51;;;;;;;;;;;;;;;6.41;75.87;99687.28;5074633;28;20397;-29
2022/11/16 07:23:16;;;;;;;;;;;;;;;6.41;76.26;99692.50;5073952;28;19927;-29
2022/11/16 07:25:45;;;;;;;;;;;;;;;6.39;76.03;99678.53;5064252;28;19917;-29
2022/11/16 07:28:10;;;;;;;;;;;;;;;6.39;76.48;99694.25;5049282;28;19944;-29
2022/11/16 07:30:36;;;;;;;;;;;;;;;6.38;76.22;99698.66;5073675;28;19955;-29
2022/11/16 07:33:01;;;;;;;;;;;;;;;6.40;75.81;99696.88;5073115;28;19928;-29
2022/11/16 07:35:26;;;;;;;;;;;;;;;6.39;76.44;99692.53;5072407;28;19917;-29
2022/11/16 07:37:51;;;;;;;;;;;;;;;6.40;76.12;99701.22;5067630;28;19921;-29
2022/11/16 07:40:18;;;;;;;;;;;;;;;6.38;75.95;99689.91;5070539;28;19999;-29
2022/11/16 07:42:44;;;;;;;;;;;;;;;6.39;76.20;99699.50;5074131;28;19913;-29
2022/11/16 07:45:10;;;;;;;;;;;;;;;6.38;76.10;99703.00;5075456;28;19913;-29
2022/11/16 07:47:37;;;;;;;;;;;;;;;6.37;76.51;99691.66;5073085;28;20384;-29
2022/11/16 07:50:04;;;;;;;;;;;;;;;6.37;76.58;99690.81;5074590;28;20262;-29
2022/11/16 07:52:33;;;;;;;;;;;;;;;6.36;76.71;99683.81;5057965;28;19917;-29
2022/11/16 07:55:00;;;;;;;;;;;;;;;6.37;76.96;99696.03;5076203;28;19935;-28
2022/11/16 07:57:25;;;;;;;;;;;;;;;6.35;77.05;99695.16;5075461;28;19919;-29
2022/11/16 07:59:51;;;;;;;;;;;;;;;6.36;76.65;99687.31;5054054;28;19920;-29
2022/11/16 08:02:16;;;;;;;;;;;;;;;6.35;76.57;99692.53;5072071;28;20094;-29
2022/11/16 08:04:45;;;;;;;;;;;;;;;6.35;76.83;99698.66;5070538;28;19916;-29
2022/11/16 08:07:11;;;;;;;;;;;;;;;6.37;76.42;99691.66;5045999;28;20007;-29
2022/11/16 08:09:39;;;;;;;;;;;;;;;6.37;76.81;99696.03;5072585;28;20034;-29
2022/11/16 08:12:04;;;;;;;;;;;;;;;6.37;76.44;99696.03;5072877;28;19948;-29
2022/11/16 08:14:30;;;;;;;;;;;;;;;6.39;76.71;99699.50;5072532;28;19956;-29
2022/11/16 08:16:55;;;;;;;;;;;;;;;6.36;76.41;99694.28;5072086;28;19943;-28
2022/11/16 08:19:20;;;;;;;;;;;;;;;6.38;76.60;99692.53;5062188;28;19920;-29
2022/11/16 08:21:47;;;;;;;;;;;;;;;6.38;76.91;99676.81;5072219;28;19912;-29
2022/11/16 08:24:13;;;;;;;;;;;;;;;6.37;76.36;99680.31;5037252;28;19934;-29
2022/11/16 08:26:38;;;;;;;;;;;;;;;6.38;77.10;99676.81;5071522;28;19927;-29
2022/11/16 08:29:03;;;;;;;;;;;;;;;6.37;76.75;99681.16;5051574;28;19920;-29
2022/11/16 08:31:29;;;;;;;;;;;;;;;6.40;77.01;99672.41;5063416;28;19917;-29
2022/11/16 08:33:55;;;;;;;;;;;;;;;6.40;76.81;99675.03;5071983;28;19920;-29
2022/11/16 08:36:20;;;;;;;;;;;;;;;6.40;76.34;99675.03;5072355;28;19924;-29
2022/11/16 08:38:46;;;;;;;;;;;;;;;6.40;76.88;99681.16;5072417;28;19913;-29
2022/11/16 08:41:12;;;;;;;;;;;;;;;6.40;76.63;99677.66;5070512;28;19912;-28
2022/11/16 08:43:39;;;;;;;;;;;;;;;6.43;76.91;99679.41;5053691;28;19916;-29
2022/11/16 08:46:04;;;;;;;;;;;;;;;6.43;76.77;99690.72;5071999;28;19922;-29
2022/11/16 08:48:30;;;;;;;;;;;;;;;6.43;76.59;99685.50;5072224;28;20011;-29
2022/11/16 08:51:00;;;;;;;;;;;;;;;6.45;76.49;99682.88;5072010;28;19913;-29
2022/11/16 08:53:25;;;;;;;;;;;;;;;6.43;76.88;99679.41;5071652;28;20362;-29
2022/11/16 08:55:50;;;;;;;;;;;;;;;6.44;76.54;99684.63;5048386;28;19967;-29
2022/11/16 08:58:16;;;;;;;;;;;;;;;6.45;76.69;99683.75;5068355;28;19923;-29
2022/11/16 09:00:41;;;;;;;;;;;;;;;6.47;76.73;99679.34;5075102;28;19938;-29
2022/11/16 09:03:08;;;;;;;;;;;;;;;6.49;76.63;99677.59;5075432;28;20049;-29
2022/11/16 09:05:33;;;;;;;;;;;;;;;6.49;77.08;99674.09;5076405;28;19923;-29
2022/11/16 09:08:01;;;;;;;;;;;;;;;6.49;76.74;99668.84;5074997;28;19912;-29
2022/11/16 09:10:26;;;;;;;;;;;;;;;6.50;77.00;99681.09;5058841;28;19923;-29
2022/11/16 09:12:53;;;;;;;;;;;;;;;6.50;77.22;99681.94;5075762;28;19919;-29
2022/11/16 09:15:19;;;;;;;;;;;;;;;6.52;77.12;99674.06;5059309;28;20337;-29
2022/11/16 09:17:45;;;;;;;;;;;;;;;6.52;77.33;99680.19;5075190;28;20435;-29
2022/11/16 09:20:11;;;;;;;;;;;;;;;6.53;77.15;99676.69;5076369;28;19917;-29
2022/11/16 09:22:36;;;;;;;;;;;;;;;6.54;77.11;99673.19;5058058;28;20007;-29
2022/11/16 09:25:01;;;;;;;;;;;;;;;6.56;77.20;99678.41;5074995;28;20019;-29
2022/11/16 09:27:27;;;;;;;;;;;;;;;6.57;77.46;99677.50;5067794;28;19968;-29
2022/11/16 09:29:52;;;;;;;;;;;;;;;6.59;77.77;99672.25;5075531;28;20309;-29
2022/11/16 09:32:17;;;;;;;;;;;;;;;6.63;78.04;99671.34;5075470;28;19917;-29
2022/11/16 09:34:42;;;;;;;;;;;;;;;6.64;77.75;99667.88;5075094;28;19999;-29
2022/11/16 09:37:08;;;;;;;;;;;;;;;6.63;78.03;99672.22;5073612;28;20289;-29
2022/11/16 09:39:33;;;;;;;;;;;;;;;6.63;77.63;99676.59;5067778;28;19916;-29
2022/11/16 09:42:01;;;;;;;;;;;;;;;6.65;78.32;99680.09;5068398;28;19960;-29
2022/11/16 09:44:32;;;;;;;;;;;;;;;6.65;78.20;99680.09;5045267;28;19917;-29
2022/11/16 09:46:58;;;;;;;;;;;;;;;6.66;77.90;99673.94;5068719;28;19920;-29
2022/11/16 09:49:30;;;;;;;;;;;;;;;6.68;78.07;99669.59;5074584;28;19912;-29
2022/11/16 09:51:59;;;;;;;;;;;;;;;6.67;78.08;99665.22;5075097;28;20008;-29
2022/11/16 09:54:28;;;;;;;;;;;;;;;6.68;78.16;99680.06;5075524;28;20046;-29
2022/11/16 09:56:56;;;;;;;;;;;;;;;6.68;77.99;99685.31;5067092;28;19955;-29
2022/11/16 09:59:21;;;;;;;;;;;;;;;6.66;77.90;99692.28;5058565;28;20007;-29
2022/11/16 10:01:47;;;;;;;;;;;;;;;6.68;77.74;99699.25;5075409;28;20398;-29
2022/11/16 10:04:18;;;;;;;;;;;;;;;6.70;77.87;99698.41;5075363;28;19920;-29
2022/11/16 10:06:53;;;;;;;;;;;;;;;6.70;77.56;99686.13;5058254;28;20320;-29
2022/11/16 10:09:18;;;;;;;;;;;;;;;6.72;77.83;99696.63;5075328;28;19912;-29
2022/11/16 10:12:02;;;;;;;;;;;;;;;6.73;77.54;99693.97;5073358;28;19924;-29
2022/11/16 10:14:37;;;;;;;;;;;;;;;6.75;77.52;99687.00;5075324;28;19943;-29
2022/11/16 10:17:17;;;;;;;;;;;;;;;6.78;77.43;99680.84;5046570;28;19974;-29
2022/11/16 10:19:44;;;;;;;;;;;;;;;6.79;77.69;99678.22;5055283;28;19923;-29
2022/11/16 10:22:12;;;;;;;;;;;;;;;6.80;77.84;99674.69;5053825;28;20361;-29
2022/11/16 10:24:44;;;;;;;;;;;;;;;6.82;77.77;99679.03;5064979;28;20274;-29
2022/11/16 10:27:20;;;;;;;;;;;;;;;6.84;77.68;99672.94;5073617;28;20377;-29
2022/11/16 10:30:02;;;;;;;;;;;;;;;6.86;77.52;99680.75;5055845;28;19912;-29
2022/11/16 10:32:28;;;;;;;;;;;;;;;6.87;77.69;99680.75;5070632;28;19923;-29
2022/11/16 10:34:54;;;;;;;;;;;;;;;6.88;77.35;99686.88;5055982;28;19916;-29
2022/11/16 10:37:20;;;;;;;;;;;;;;;6.89;77.20;99688.59;5072862;28;19920;-29
2022/11/16 10:39:47;;;;;;;;;;;;;;;6.90;77.53;99688.59;5067397;28;19912;-29
2022/11/16 10:42:15;;;;;;;;;;;;;;;6.92;77.38;99678.97;5075368;28;19913;-29
2022/11/16 10:44:42;;;;;;;;;;;;;;;6.93;77.28;99679.81;5075231;28;20246;-29
2022/11/16 10:47:16;;;;;;;;;;;;;;;6.94;77.32;99681.56;5076282;28;20358;-29
2022/11/16 10:49:49;;;;;;;;;;;;;;;6.95;77.48;99677.19;5060585;28;19916;-29
2022/11/16 10:52:14;;;;;;;;;;;;;;;6.96;77.72;99664.06;5074710;28;19921;-29
2022/11/16 10:54:40;;;;;;;;;;;;;;;6.98;77.57;99672.78;5058470;28;19923;-29
2022/11/16 10:57:12;;;;;;;;;;;;;;;6.99;77.19;99663.16;5078993;28;19970;-29
2022/11/16 10:59:39;;;;;;;;;;;;;;;7.00;77.19;99665.75;5078385;28;19919;-29
2022/11/16 11:02:19;;;;;;;;;;;;;;;7.02;77.29;99658.75;5080699;28;19921;-29
2022/11/16 11:04:57;;;;;;;;;;;;;;;7.03;77.41;99665.72;5074433;28;20447;-29
2022/11/16 11:07:28;;;;;;;;;;;;;;;7.04;77.79;99656.97;5058406;28;19918;-29
2022/11/16 11:09:53;;;;;;;;;;;;;;;7.06;77.32;99659.56;5055404;28;19962;-29
2022/11/16 11:12:37;;;;;;;;;;;;;;;7.08;77.59;99660.44;5074375;28;19916;-29
2022/11/16 11:15:06;;;;;;;;;;;;;;;7.09;77.40;99651.69;5057869;28;19919;-29
2022/11/16 11:17:33;;;;;;;;;;;;;;;7.11;77.86;99656.91;5075953;28;19981;-30
2022/11/16 11:19:58;;;;;;;;;;;;;;;7.12;77.77;99648.16;5046374;28;19962;-30
2022/11/16 11:22:24;;;;;;;;;;;;;;;7.14;77.49;99652.50;5064683;28;20373;-29
2022/11/16 11:24:49;;;;;;;;;;;;;;;7.15;77.45;99648.13;5044078;28;19923;-29
2022/11/16 11:27:19;;;;;;;;;;;;;;;7.19;77.61;99649.81;5074056;28;19963;-29
2022/11/16 11:29:46;;;;;;;;;;;;;;;7.18;77.46;99641.06;5067098;28;19960;-29
2022/11/16 11:32:15;;;;;;;;;;;;;;;7.20;77.56;99643.69;5050116;28;19912;-29
2022/11/16 11:34:43;;;;;;;;;;;;;;;7.21;77.59;99640.19;5046455;28;19917;-29
2022/11/16 11:37:16;;;;;;;;;;;;;;;7.23;77.70;99641.03;5050964;28;19925;-29
2022/11/16 11:39:41;;;;;;;;;;;;;;;7.24;77.71;99627.03;5068235;28;19916;-29
2022/11/16 11:42:13;;;;;;;;;;;;;;;7.26;77.63;99629.63;5068648;28;20006;-29
2022/11/16 11:44:38;;;;;;;;;;;;;;;7.28;77.68;99633.13;5073551;28;19913;-29
2022/11/16 11:47:13;;;;;;;;;;;;;;;7.29;77.68;99633.09;5055457;28;20391;-29
2022/11/16 11:49:41;;;;;;;;;;;;;;;7.30;78.08;99632.19;5073321;28;19913;-29
2022/11/16 11:52:10;;;;;;;;;;;;;;;7.31;77.93;99631.31;5046118;28;19923;-29
2022/11/16 11:54:40;;;;;;;;;;;;;;;7.32;77.99;99630.44;5071291;28;19924;-29
2022/11/16 11:57:07;;;;;;;;;;;;;;;7.32;78.32;99617.34;5055022;28;19916;-29
2022/11/16 11:59:35;;;;;;;;;;;;;;;7.36;78.34;99630.38;5054469;28;19934;-29
2022/11/16 12:02:06;;;;;;;;;;;;;;;7.36;78.15;99625.13;5054341;28;20285;-29
2022/11/16 12:04:34;;;;;;;;;;;;;;;7.37;78.40;99621.66;5053546;28;20363;-29
2022/11/16 12:07:05;;;;;;;;;;;;;;;7.38;78.46;99626.88;5072539;28;19919;-29
2022/11/16 12:09:49;;;;;;;;;;;;;;;7.41;78.28;99623.34;5072433;28;19913;-29
2022/11/16 12:12:29;;;;;;;;;;;;;;;7.41;78.52;99624.19;5072784;28;19913;-29
2022/11/16 12:14:58;;;;;;;;;;;;;;;7.41;78.30;99624.19;5072673;28;19917;-29
2022/11/16 12:17:26;;;;;;;;;;;;;;;7.43;78.27;99621.53;5071782;28;20015;-29
2022/11/16 12:19:56;;;;;;;;;;;;;;;7.44;78.26;99624.16;5062444;28;20464;-29
2022/11/16 12:22:21;;;;;;;;;;;;;;;7.45;77.82;99622.41;5072144;28;20375;-29
2022/11/16 12:25:02;;;;;;;;;;;;;;;7.47;78.06;99628.50;5053974;28;19962;-29
2022/11/16 12:27:43;;;;;;;;;;;;;;;7.47;77.95;99633.72;5072160;28;19912;-29
2022/11/16 12:30:10;;;;;;;;;;;;;;;7.48;78.31;99635.50;5071432;28;19916;-29
2022/11/16 12:32:41;;;;;;;;;;;;;;;7.49;78.20;99631.97;5050224;28;19924;-29
2022/11/16 12:35:07;;;;;;;;;;;;;;;7.51;78.11;99634.56;5046649;28;19923;-30
2022/11/16 12:37:50;;;;;;;;;;;;;;;7.51;78.12;99629.34;5074763;28;19917;-29
2022/11/16 12:40:28;;;;;;;;;;;;;;;7.52;78.04;99637.19;5076020;28;19913;-29
2022/11/16 12:42:53;;;;;;;;;;;;;;;7.53;78.17;99633.66;5067520;28;19924;-29
2022/11/16 12:45:24;;;;;;;;;;;;;;;7.53;78.18;99636.28;5076300;28;19920;-29
2022/11/16 12:48:10;;;;;;;;;;;;;;;7.55;78.46;99636.28;5039032;28;20394;-29
2022/11/16 12:50:59;;;;;;;;;;;;;;;7.55;78.21;99639.78;5056836;28;19913;-29
2022/11/16 12:53:48;;;;;;;;;;;;;;;7.57;77.89;99637.13;4994431;28;20389;-29
2022/11/16 12:56:34;;;;;;;;;;;;;;;7.58;78.39;99631.84;5064476;28;19950;-29
2022/11/16 12:59:03;;;;;;;;;;;;;;;7.57;78.30;99635.34;5058407;28;20292;-29
2022/11/16 13:01:35;;;;;;;;;;;;;;;7.60;78.32;99628.34;5058615;28;19912;-29
2022/11/16 13:04:05;;;;;;;;;;;;;;;7.59;78.16;99627.47;5060938;28;20293;-29
2022/11/16 13:06:31;;;;;;;;;;;;;;;7.61;78.35;99624.81;5045246;28;19912;-28
2022/11/16 13:09:05;;;;;;;;;;;;;;;7.61;78.05;99619.56;5049463;28;19917;-29
2022/11/16 13:11:31;;;;;;;;;;;;;;;7.63;78.18;99618.66;5064559;28;19919;-28
2022/11/16 13:13:59;;;;;;;;;;;;;;;7.62;78.47;99619.56;5065484;28;19924;-29
2022/11/16 13:16:24;;;;;;;;;;;;;;;7.63;78.32;99620.41;5082966;28;19923;-29
2022/11/16 13:18:51;;;;;;;;;;;;;;;7.63;78.36;99620.41;5080967;28;19916;-29
2022/11/16 13:21:39;;;;;;;;;;;;;;;7.64;78.48;99624.78;5078412;28;19916;-29
2022/11/16 13:24:23;;;;;;;;;;;;;;;7.65;78.71;99631.75;5074160;28;20663;-29
2022/11/16 13:26:48;;;;;;;;;;;;;;;7.66;78.78;99628.25;5080438;28;19912;-29
2022/11/16 13:29:13;;;;;;;;;;;;;;;7.65;78.59;99631.75;5080504;28;19971;-29
2022/11/16 13:31:44;;;;;;;;;;;;;;;7.65;78.56;99626.50;5083022;28;19962;-29
2022/11/16 13:34:32;;;;;;;;;;;;;;;7.66;78.50;99628.25;5061966;28;19912;-29
2022/11/16 13:36:58;;;;;;;;;;;;;;;7.66;78.42;99623.00;5072970;28;19924;-29
2022/11/16 13:39:42;;;;;;;;;;;;;;;7.66;78.54;99626.50;5056297;28;20412;-29
2022/11/16 13:42:10;;;;;;;;;;;;;;;7.66;78.65;99617.75;5078452;28;19955;-29